1881 Severe Cyclonic Storm NOT_NAMED (1881146N14067)


IBTrACS version v04r00. Visit IBTrACS website for data access.
Please direct all questions to the IBTrACS Q and A forum

Storm track - Intensity - Wind Radii - Intensity Data - Source Data - All data

Summary Information

Storm ID 1881146N14067
Start May 26 00Z
Landfall Jun 2 00Z
Max Intensity 64 kt (May 26 03Z)
End Jun 2 03Z
ATCF IDs
Track status Best track data.

Storm track plot

Map of storm track

Intensity plots

Map of storm track

Radial wind information

No radial wind information for this storm


Position and Intensity Table

BASIN ISO_TIME_________ NATURE LAT LON DS824 WIND
degrees north degrees east kts
NI 1881-05-26 00:00:00 TS 13.80 66.70 64
NI 03:00:00 TS 13.80 66.70 64
NI 06:00:00 TS 13.80 66.70 64
NI 09:00:00 TS 13.81 66.70 64
NI 12:00:00 TS 13.81 66.70 64
NI 15:00:00 TS 13.80 66.70 64
NI 18:00:00 TS 13.79 66.70 64
NI 21:00:00 TS 13.76 66.70 64
NI 1881-05-27 00:00:00 TS 13.77 66.70 64
NI 03:00:00 TS 13.86 66.70 64
NI 06:00:00 TS 14.01 66.71 64
NI 09:00:00 TS 14.20 66.75 64
NI 12:00:00 TS 14.40 66.79 64
NI 15:00:00 TS 14.57 66.80 64
NI 18:00:00 TS 14.74 66.81 64
NI 21:00:00 TS 14.92 66.81 64
NI 1881-05-28 00:00:00 TS 15.11 66.81 64
NI 03:00:00 TS 15.30 66.78 64
NI 06:00:00 TS 15.49 66.74 64
NI 09:00:00 TS 15.65 66.69 64
NI 12:00:00 TS 15.81 66.64 64
NI 15:00:00 TS 16.00 66.55 64
NI 18:00:00 TS 16.19 66.47 64
NI 21:00:00 TS 16.39 66.38 64
NI 1881-05-29 00:00:00 TS 16.59 66.27 64
NI 03:00:00 TS 16.83 66.11 64
NI 06:00:00 TS 17.06 65.92 64
NI 09:00:00 TS 17.28 65.72 64
NI 12:00:00 TS 17.49 65.51 64
NI 15:00:00 TS 17.70 65.30 64
NI 18:00:00 TS 17.91 65.10 64
NI 21:00:00 TS 18.11 64.88 64
NI 1881-05-30 00:00:00 TS 18.31 64.63 64
NI 03:00:00 TS 18.51 64.33 64
NI 06:00:00 TS 18.69 63.99 64
NI 09:00:00 TS 18.82 63.65 64
NI 12:00:00 TS 18.94 63.29 64
NI 15:00:00 TS 19.05 62.93 64
NI 18:00:00 TS 19.16 62.55 64
NI 21:00:00 TS 19.28 62.15 64
NI 1881-05-31 00:00:00 TS 19.36 61.77 64
NI 03:00:00 TS 19.40 61.46 64
NI 06:00:00 TS 19.42 61.21 64
NI 09:00:00 TS 19.45 60.99 64
NI 12:00:00 TS 19.49 60.79 64
NI 15:00:00 TS 19.52 60.60 64
NI 18:00:00 TS 19.57 60.41 64
NI 21:00:00 TS 19.61 60.25 64
NI 1881-06-01 00:00:00 TS 19.66 60.09 64
NI 03:00:00 TS 19.74 59.90 64
NI 06:00:00 TS 19.85 59.71 64
NI 09:00:00 TS 19.98 59.51 64
NI 12:00:00 TS 20.13 59.31 64
NI 15:00:00 TS 20.28 59.10 56
NI 18:00:00 TS 20.40 58.90 49
NI 21:00:00 TS 20.52 58.68 41
NI 1881-06-02 00:00:00 TS 20.62 58.45 34
NI 03:00:00 NR 20.70 58.30

Source Information

Agency Information
USA
TOKYO
CMA
HKO
NEWDELHI
REUNION
BOM
NADI
WELLINGTON
DS824 n_ind.dat:39:NOT NAMED
TD9636 cons_worldwide_trop_cyclone_18710101-19891231-004:Line=361
TD9635
NEUMANN
MLC

All available IBTrACS Data

SEASON BASIN SUBBASIN ISO_TIME_________ NATURE LAT LON DIST2LAND LANDFALL IFLAG USA SSHS DS824 LAT DS824 LON DS824 STAGE DS824 WIND TD9636 LAT TD9636 LON TD9636 STAGE STORM SPEED STORM DIR
Year degrees north degrees east km km 1 degrees north degrees east kts degrees north degrees east kts degrees
1881 NI AS 1881-05-26 00:00:00 TS 13.80 66.70 770 770 _________O____ -1 13.80 66.70 TC 64 0 0
1881 NI AS 03:00:00 TS 13.80 66.70 770 770 _________PO___ -1 13.80 66.70 TC 64 13.80 66.70 4 0 0
1881 NI AS 06:00:00 TS 13.80 66.70 770 770 _________OP___ -1 13.80 66.70 TC 64 13.81 66.70 4 0 0
1881 NI AS 09:00:00 TS 13.81 66.70 770 770 _________PP___ -1 13.80 66.70 TC 64 13.82 66.70 4 0 0
1881 NI AS 12:00:00 TS 13.81 66.70 770 770 _________OP___ -1 13.80 66.70 TC 64 13.82 66.70 4 0 0
1881 NI AS 15:00:00 TS 13.80 66.70 770 770 _________PO___ -1 13.80 66.70 TC 64 13.80 66.70 4 0 0
1881 NI AS 18:00:00 TS 13.79 66.70 770 770 _________OP___ -1 13.80 66.70 TC 64 13.77 66.70 4 0 199
1881 NI AS 21:00:00 TS 13.76 66.70 770 770 _________PP___ -1 13.78 66.70 TC 64 13.75 66.69 4 0 0
1881 NI AS 1881-05-27 00:00:00 TS 13.77 66.70 770 765 _________OP___ -1 13.80 66.70 TC 64 13.75 66.69 4 1 0
1881 NI AS 03:00:00 TS 13.86 66.70 765 761 _________PO___ -1 13.92 66.69 TC 64 13.80 66.70 4 2 0
1881 NI AS 06:00:00 TS 14.01 66.71 761 753 _________OP___ -1 14.10 66.70 TC 64 13.92 66.72 4 3 9
1881 NI AS 09:00:00 TS 14.20 66.75 753 735 _________PP___ -1 14.30 66.75 TC 64 14.10 66.75 4 4 11
1881 NI AS 12:00:00 TS 14.40 66.79 735 728 _________OP___ -1 14.50 66.80 TC 64 14.30 66.78 4 4 8
1881 NI AS 15:00:00 TS 14.57 66.80 728 724 _________PO___ -1 14.65 66.81 TC 64 14.50 66.80 4 3 5
1881 NI AS 18:00:00 TS 14.74 66.81 724 718 _________OP___ -1 14.80 66.80 TC 64 14.67 66.82 4 3 4
1881 NI AS 21:00:00 TS 14.92 66.81 718 713 _________PP___ -1 14.99 66.81 TC 64 14.85 66.82 4 4 2
1881 NI AS 1881-05-28 00:00:00 TS 15.11 66.81 713 708 _________OP___ -1 15.20 66.80 TC 64 15.02 66.82 4 4 356
1881 NI AS 03:00:00 TS 15.30 66.78 708 705 _________PO___ -1 15.41 66.76 TC 64 15.20 66.80 4 4 349
1881 NI AS 06:00:00 TS 15.49 66.74 714 712 _________OP___ -1 15.60 66.70 TC 64 15.37 66.77 4 4 347
1881 NI AS 09:00:00 TS 15.65 66.69 712 697 _________PP___ -1 15.75 66.66 TC 64 15.54 66.73 4 3 343
1881 NI AS 12:00:00 TS 15.81 66.64 703 685 _________OP___ -1 15.90 66.60 TC 64 15.72 66.67 4 4 339
1881 NI AS 15:00:00 TS 16.00 66.55 685 672 _________PO___ -1 16.09 66.51 TC 64 15.90 66.60 4 4 337
1881 NI AS 18:00:00 TS 16.19 66.47 672 660 _________OP___ -1 16.30 66.40 TC 64 16.09 66.53 4 4 337
1881 NI AS 21:00:00 TS 16.39 66.38 660 649 _________PP___ -1 16.49 66.31 TC 64 16.28 66.44 4 4 335
1881 NI AS 1881-05-29 00:00:00 TS 16.59 66.27 649 638 _________OP___ -1 16.70 66.20 TC 64 16.49 66.34 4 5 329
1881 NI AS 03:00:00 TS 16.83 66.11 645 636 _________PO___ -1 16.95 66.02 TC 64 16.70 66.20 4 6 324
1881 NI AS 06:00:00 TS 17.06 65.92 635 635 _________OP___ -1 17.20 65.80 TC 64 16.92 66.03 4 6 321
1881 NI AS 09:00:00 TS 17.28 65.72 635 634 _________PP___ -1 17.41 65.60 TC 64 17.15 65.84 4 6 318
1881 NI AS 12:00:00 TS 17.49 65.51 634 634 _________OP___ -1 17.60 65.40 TC 64 17.38 65.62 4 6 317
1881 NI AS 15:00:00 TS 17.70 65.30 634 625 _________PO___ -1 17.80 65.21 TC 64 17.60 65.40 4 6 317
1881 NI AS 18:00:00 TS 17.91 65.10 632 623 _________OP___ -1 18.00 65.00 TC 64 17.82 65.20 4 6 316
1881 NI AS 21:00:00 TS 18.11 64.88 628 625 _________PP___ -1 18.20 64.77 TC 64 18.02 64.99 4 6 312
1881 NI AS 1881-05-30 00:00:00 TS 18.31 64.63 633 623 _________OP___ -1 18.40 64.50 TC 64 18.22 64.76 4 7 307
1881 NI AS 03:00:00 TS 18.51 64.33 614 576 _________PO___ -1 18.62 64.17 TC 64 18.40 64.50 4 7 302
1881 NI AS 06:00:00 TS 18.69 63.99 576 543 _________OP___ -1 18.80 63.80 TC 64 18.57 64.19 4 7 296
1881 NI AS 09:00:00 TS 18.82 63.65 534 502 _________PP___ -1 18.91 63.45 TC 64 18.73 63.84 4 7 291
1881 NI AS 12:00:00 TS 18.94 63.29 502 461 _________OP___ -1 19.00 63.10 TC 64 18.87 63.48 4 7 289
1881 NI AS 15:00:00 TS 19.05 62.93 461 423 _________PO___ -1 19.10 62.76 TC 64 19.00 63.10 4 7 288
1881 NI AS 18:00:00 TS 19.16 62.55 423 382 _________OP___ -1 19.20 62.40 TC 64 19.13 62.71 4 8 287
1881 NI AS 21:00:00 TS 19.28 62.15 374 343 _________PP___ -1 19.32 61.99 TC 64 19.24 62.31 4 8 285
1881 NI AS 1881-05-31 00:00:00 TS 19.36 61.77 343 320 _________OP___ -1 19.40 61.60 TC 64 19.33 61.94 4 7 281
1881 NI AS 03:00:00 TS 19.40 61.46 320 298 _________PO___ -1 19.41 61.32 TC 64 19.40 61.60 4 5 276
1881 NI AS 06:00:00 TS 19.42 61.21 298 275 _________OP___ -1 19.40 61.10 TC 64 19.44 61.32 4 4 276
1881 NI AS 09:00:00 TS 19.45 60.99 275 257 _________PP___ -1 19.44 60.89 TC 64 19.46 61.09 4 4 280
1881 NI AS 12:00:00 TS 19.49 60.79 257 239 _________OP___ -1 19.50 60.70 TC 64 19.48 60.89 4 4 281
1881 NI AS 15:00:00 TS 19.52 60.60 239 215 _________PO___ -1 19.55 60.49 TC 64 19.50 60.70 4 4 282
1881 NI AS 18:00:00 TS 19.57 60.41 215 207 _________OP___ -1 19.60 60.30 TC 64 19.53 60.51 4 3 284
1881 NI AS 21:00:00 TS 19.61 60.25 198 183 _________PP___ -1 19.64 60.15 TC 64 19.57 60.34 4 3 288
1881 NI AS 1881-06-01 00:00:00 TS 19.66 60.09 183 165 _________OP___ -1 19.70 60.00 TC 64 19.62 60.17 4 4 293
1881 NI AS 03:00:00 TS 19.74 59.90 165 142 _________PO___ -1 19.78 59.81 TC 64 19.70 60.00 4 4 298
1881 NI AS 06:00:00 TS 19.85 59.71 137 113 _________OP___ -1 19.90 59.60 TC 64 19.80 59.81 4 4 303
1881 NI AS 09:00:00 TS 19.98 59.51 113 89 _________PP___ -1 20.04 59.40 TC 64 19.93 59.62 4 5 307
1881 NI AS 12:00:00 TS 20.13 59.31 89 61 _________OP___ -1 20.20 59.20 TC 64 20.06 59.41 4 5 308
1881 NI AS 15:00:00 TS 20.28 59.10 61 38 _________PO___ -1 20.36 59.01 TC 56 20.20 59.20 4 5 306
1881 NI AS 18:00:00 TS 20.40 58.90 38 15 _________OP___ -1 20.50 58.80 TC 49 20.33 58.98 4 5 301
1881 NI AS 21:00:00 TS 20.52 58.68 15 0 _________PP___ -1 20.61 58.56 TC 41 20.46 58.76 4 5 297
1881 NI AS 1881-06-02 00:00:00 TS 20.62 58.45 0 0 _________OP___ -1 20.70 58.30 TC 34 20.58 58.53 4 4 297
1881 NI AS 03:00:00 NR 20.70 58.30 0 __________O___ -1 TC 20.70 58.30 2 3 299